Ibotirama, Brazil
Current Conditions -  °F | °C
As of 11:50 PM on Thursday 23 Oct 2014 (Local Time) from SBQV Reporting Station
Broken Clouds Broken Clouds  
Wind Chill: 63°   Ceiling: 400
Heat Index: 63°   Visibility: 6mi
Dew Point: 63°   Wind: 13mph
Humidity: 100%   Direction: 130°SE
Pressure: 30.15"   Gusts: NA
Location:  12.19°S, 43.22°W
Report Text: SBQV 240250Z 13011KT 9999 BKN004 17/17 Q1021
Loading
Personal Weather Stations






























Interactive Weather Map
Tropical Storm Tracking
New forecast layout! Learn more

10-Day Weather Forecast

Advertisements
Track Severe Weather on mobile